sensor_id;sensor_type;location;lat;lon;timestamp;pressure;altitude;pressure_sealevel;temperature;humidity
34658;BME280;20865;43.312;27.152;2023-06-19T00:00:08;100135.20;;;27.33;48.83
34658;BME280;20865;43.312;27.152;2023-06-19T00:02:38;100135.20;;;27.33;48.83
34658;BME280;20865;43.312;27.152;2023-06-19T00:05:07;100146.06;;;27.39;49.09
34658;BME280;20865;43.312;27.152;2023-06-19T00:07:36;100152.06;;;27.38;49.11
34658;BME280;20865;43.312;27.152;2023-06-19T00:10:05;100147.95;;;27.38;49.09
34658;BME280;20865;43.312;27.152;2023-06-19T00:12:33;100152.06;;;27.38;49.12
34658;BME280;20865;43.312;27.152;2023-06-19T00:15:00;100154.63;;;27.40;49.07
34658;BME280;20865;43.312;27.152;2023-06-19T00:17:28;100149.94;;;27.32;49.27
34658;BME280;20865;43.312;27.152;2023-06-19T00:19:56;100141.48;;;27.25;49.45
34658;BME280;20865;43.312;27.152;2023-06-19T00:22:25;100145.28;;;27.28;49.47
34658;BME280;20865;43.312;27.152;2023-06-19T00:24:52;100141.17;;;27.28;49.55
34658;BME280;20865;43.312;27.152;2023-06-19T00:27:20;100141.17;;;27.28;49.55
34658;BME280;20865;43.312;27.152;2023-06-19T00:29:47;100147.20;;;27.32;49.44
34658;BME280;20865;43.312;27.152;2023-06-19T00:32:15;100152.17;;;27.33;49.50
34658;BME280;20865;43.312;27.152;2023-06-19T00:34:43;100144.43;;;27.28;49.56
34658;BME280;20865;43.312;27.152;2023-06-19T00:37:10;100144.43;;;27.28;49.56
34658;BME280;20865;43.312;27.152;2023-06-19T00:39:40;100157.66;;;27.33;49.50
34658;BME280;20865;43.312;27.152;2023-06-19T00:42:07;100157.66;;;27.33;49.50
34658;BME280;20865;43.312;27.152;2023-06-19T00:44:35;100154.40;;;27.33;49.58
34658;BME280;20865;43.312;27.152;2023-06-19T00:47:03;100155.77;;;27.33;49.69
34658;BME280;20865;43.312;27.152;2023-06-19T00:49:31;100163.34;;;27.35;49.81
34658;BME280;20865;43.312;27.152;2023-06-19T00:51:59;100165.06;;;27.36;49.83
34658;BME280;20865;43.312;27.152;2023-06-19T00:54:27;100156.83;;;27.36;49.82
34658;BME280;20865;43.312;27.152;2023-06-19T00:56:55;100165.44;;;27.37;49.84
34658;BME280;20865;43.312;27.152;2023-06-19T00:59:23;100154.06;;;27.32;49.83
34658;BME280;20865;43.312;27.152;2023-06-19T01:01:50;100164.38;;;27.34;49.90
34658;BME280;20865;43.312;27.152;2023-06-19T01:04:18;100172.48;;;27.44;49.74
34658;BME280;20865;43.312;27.152;2023-06-19T01:06:53;100160.01;;;27.45;49.79
34658;BME280;20865;43.312;27.152;2023-06-19T01:09:29;100165.84;;;27.46;49.83
34658;BME280;20865;43.312;27.152;2023-06-19T01:11:59;100160.21;;;27.48;49.91
34658;BME280;20865;43.312;27.152;2023-06-19T01:14:30;100160.21;;;27.48;49.91
34658;BME280;20865;43.312;27.152;2023-06-19T01:16:57;100171.18;;;27.48;49.88
34658;BME280;20865;43.312;27.152;2023-06-19T01:19:26;100169.81;;;27.48;49.82
34658;BME280;20865;43.312;27.152;2023-06-19T01:21:54;100158.33;;;27.48;49.85
34658;BME280;20865;43.312;27.152;2023-06-19T01:24:22;100160.21;;;27.48;49.98
34658;BME280;20865;43.312;27.152;2023-06-19T01:26:49;100163.95;;;27.47;49.96
34658;BME280;20865;43.312;27.152;2023-06-19T01:29:17;100170.64;;;27.44;50.04
34658;BME280;20865;43.312;27.152;2023-06-19T01:31:59;100170.98;;;27.45;50.00
34658;BME280;20865;43.312;27.152;2023-06-19T01:34:26;100175.95;;;27.46;50.17
34658;BME280;20865;43.312;27.152;2023-06-19T01:36:55;100175.95;;;27.46;50.17
34658;BME280;20865;43.312;27.152;2023-06-19T01:39:23;100173.20;;;27.46;50.18
34658;BME280;20865;43.312;27.152;2023-06-19T01:41:53;100175.78;;;27.47;50.13
34658;BME280;20865;43.312;27.152;2023-06-19T01:44:22;100174.92;;;27.47;50.10
34658;BME280;20865;43.312;27.152;2023-06-19T01:46:50;100172.17;;;27.47;50.27
34658;BME280;20865;43.312;27.152;2023-06-19T01:49:18;100173.38;;;27.44;50.28
34658;BME280;20865;43.312;27.152;2023-06-19T01:51:46;100173.72;;;27.45;50.12
34658;BME280;20865;43.312;27.152;2023-06-19T01:54:13;100174.61;;;27.50;50.06
34658;BME280;20865;43.312;27.152;2023-06-19T01:56:41;100182.70;;;27.51;50.00
34658;BME280;20865;43.312;27.152;2023-06-19T01:59:08;100178.72;;;27.50;50.08
34658;BME280;20865;43.312;27.152;2023-06-19T02:01:36;100182.52;;;27.53;50.11
34658;BME280;20865;43.312;27.152;2023-06-19T02:04:04;100183.23;;;27.55;50.14
34658;BME280;20865;43.312;27.152;2023-06-19T02:06:31;100180.81;;;27.52;50.05
34658;BME280;20865;43.312;27.152;2023-06-19T02:08:59;100189.37;;;27.53;50.09
34658;BME280;20865;43.312;27.152;2023-06-19T02:11:27;100193.50;;;27.53;50.14
34658;BME280;20865;43.312;27.152;2023-06-19T02:13:55;100191.09;;;27.54;50.17
34658;BME280;20865;43.312;27.152;2023-06-19T02:16:22;100194.02;;;27.52;50.18
34658;BME280;20865;43.312;27.152;2023-06-19T02:18:50;100196.44;;;27.55;50.04
34658;BME280;20865;43.312;27.152;2023-06-19T02:21:18;100189.01;;;27.48;50.07
34658;BME280;20865;43.312;27.152;2023-06-19T02:23:45;100201.18;;;27.49;50.09
34658;BME280;20865;43.312;27.152;2023-06-19T02:26:13;100206.15;;;27.50;50.08
34658;BME280;20865;43.312;27.152;2023-06-19T02:28:40;100206.15;;;27.50;50.08
34658;BME280;20865;43.312;27.152;2023-06-19T02:31:08;100208.34;;;27.46;50.04
34658;BME280;20865;43.312;27.152;2023-06-19T02:33:35;100209.03;;;27.44;50.15
34658;BME280;20865;43.312;27.152;2023-06-19T02:36:03;100209.03;;;27.44;50.15
34658;BME280;20865;43.312;27.152;2023-06-19T02:38:31;100218.42;;;27.42;50.23
34658;BME280;20865;43.312;27.152;2023-06-19T02:40:59;100222.02;;;27.42;50.13
34658;BME280;20865;43.312;27.152;2023-06-19T02:43:29;100230.09;;;27.44;50.31
34658;BME280;20865;43.312;27.152;2023-06-19T02:45:57;100230.46;;;27.45;50.06
34658;BME280;20865;43.312;27.152;2023-06-19T02:48:24;100240.92;;;27.45;49.98
34658;BME280;20865;43.312;27.152;2023-06-19T02:50:52;100237.83;;;27.44;49.92
34658;BME280;20865;43.312;27.152;2023-06-19T02:53:19;100234.02;;;27.41;50.18
34658;BME280;20865;43.312;27.152;2023-06-19T02:55:47;100238.31;;;27.44;50.23
34658;BME280;20865;43.312;27.152;2023-06-19T02:58:14;100243.31;;;27.44;50.08
34658;BME280;20865;43.312;27.152;2023-06-19T03:00:42;100240.58;;;27.44;50.07
34658;BME280;20865;43.312;27.152;2023-06-19T03:03:10;100242.25;;;27.41;50.18
34658;BME280;20865;43.312;27.152;2023-06-19T03:05:38;100245.03;;;27.45;50.19
34658;BME280;20865;43.312;27.152;2023-06-19T03:08:06;100244.48;;;27.42;50.12
34658;BME280;20865;43.312;27.152;2023-06-19T03:10:33;100248.12;;;27.46;50.14
34658;BME280;20865;43.312;27.152;2023-06-19T03:13:02;100246.87;;;27.41;50.11
34658;BME280;20865;43.312;27.152;2023-06-19T03:15:30;100257.03;;;27.44;50.07
34658;BME280;20865;43.312;27.152;2023-06-19T03:17:57;100254.28;;;27.44;50.13
34658;BME280;20865;43.312;27.152;2023-06-19T03:20:25;100260.11;;;27.45;50.09
34658;BME280;20865;43.312;27.152;2023-06-19T03:22:52;100254.77;;;27.44;50.09
34658;BME280;20865;43.312;27.152;2023-06-19T03:25:20;100264.74;;;27.45;50.12
34658;BME280;20865;43.312;27.152;2023-06-19T03:27:47;100264.74;;;27.45;50.12
34658;BME280;20865;43.312;27.152;2023-06-19T03:30:15;100267.48;;;27.45;50.24
34658;BME280;20865;43.312;27.152;2023-06-19T03:32:45;100269.03;;;27.47;50.33
34658;BME280;20865;43.312;27.152;2023-06-19T03:35:12;100258.41;;;27.44;50.41
34658;BME280;20865;43.312;27.152;2023-06-19T03:37:41;100270.61;;;27.50;50.37
34658;BME280;20865;43.312;27.152;2023-06-19T03:40:09;100274.52;;;27.47;50.55
34658;BME280;20865;43.312;27.152;2023-06-19T03:42:39;100274.52;;;27.47;50.55
34658;BME280;20865;43.312;27.152;2023-06-19T03:45:07;100275.89;;;27.47;50.55
34658;BME280;20865;43.312;27.152;2023-06-19T03:47:35;100280.00;;;27.47;50.61
34658;BME280;20865;43.312;27.152;2023-06-19T03:50:03;100282.27;;;27.48;50.52
34658;BME280;20865;43.312;27.152;2023-06-19T03:52:31;100277.27;;;27.47;50.67
34658;BME280;20865;43.312;27.152;2023-06-19T03:54:58;100270.78;;;27.48;50.55
34658;BME280;20865;43.312;27.152;2023-06-19T03:57:26;100277.36;;;27.55;50.53
34658;BME280;20865;43.312;27.152;2023-06-19T03:59:53;100283.19;;;27.57;50.46
34658;BME280;20865;43.312;27.152;2023-06-19T04:02:21;100275.69;;;27.59;50.79
34658;BME280;20865;43.312;27.152;2023-06-19T04:04:49;100271.05;;;27.59;50.89
34658;BME280;20865;43.312;27.152;2023-06-19T04:07:16;100274.00;;;27.62;50.74
34658;BME280;20865;43.312;27.152;2023-06-19T04:09:44;100264.77;;;27.67;50.76
34658;BME280;20865;43.312;27.152;2023-06-19T04:12:11;100263.03;;;27.62;50.15
34658;BME280;20865;43.312;27.152;2023-06-19T04:14:41;100262.55;;;27.66;50.53
34658;BME280;20865;43.312;27.152;2023-06-19T04:17:09;100268.78;;;27.72;50.65
34658;BME280;20865;43.312;27.152;2023-06-19T04:19:36;100269.84;;;27.75;50.40
34658;BME280;20865;43.312;27.152;2023-06-19T04:22:04;100272.68;;;27.84;50.45
34658;BME280;20865;43.312;27.152;2023-06-19T04:24:32;100271.86;;;27.87;50.25
34658;BME280;20865;43.312;27.152;2023-06-19T04:27:00;100271.03;;;27.91;49.71
34658;BME280;20865;43.312;27.152;2023-06-19T04:29:28;100276.03;;;27.95;48.33
34658;BME280;20865;43.312;27.152;2023-06-19T04:32:00;100275.06;;;28.00;48.40
34658;BME280;20865;43.312;27.152;2023-06-19T04:34:30;100276.41;;;27.96;47.76
34658;BME280;20865;43.312;27.152;2023-06-19T04:36:58;100270.56;;;27.99;47.57
34658;BME280;20865;43.312;27.152;2023-06-19T04:39:26;100273.94;;;28.11;47.64
34658;BME280;20865;43.312;27.152;2023-06-19T04:41:54;100276.45;;;28.05;47.84
34658;BME280;20865;43.312;27.152;2023-06-19T04:44:21;100282.20;;;28.15;47.40
34658;BME280;20865;43.312;27.152;2023-06-19T04:46:49;100277.08;;;28.20;47.33
34658;BME280;20865;43.312;27.152;2023-06-19T04:49:16;100274.41;;;28.29;47.49
34658;BME280;20865;43.312;27.152;2023-06-19T04:51:44;100278.23;;;28.36;46.69
34658;BME280;20865;43.312;27.152;2023-06-19T04:54:11;100281.61;;;28.52;47.26
34658;BME280;20865;43.312;27.152;2023-06-19T04:56:39;100278.93;;;28.60;47.09
34658;BME280;20865;43.312;27.152;2023-06-19T04:59:06;100278.98;;;28.72;46.56
34658;BME280;20865;43.312;27.152;2023-06-19T05:01:34;100279.21;;;28.87;46.37
34658;BME280;20865;43.312;27.152;2023-06-19T05:04:01;100282.70;;;28.97;46.25
34658;BME280;20865;43.312;27.152;2023-06-19T05:06:29;100292.09;;;29.12;45.69
34658;BME280;20865;43.312;27.152;2023-06-19T05:08:57;100293.34;;;29.26;45.22
34658;BME280;20865;43.312;27.152;2023-06-19T05:11:24;100294.91;;;29.37;44.56
34658;BME280;20865;43.312;27.152;2023-06-19T05:13:52;100291.50;;;29.43;45.14
34658;BME280;20865;43.312;27.152;2023-06-19T05:16:22;100298.37;;;29.47;45.62
34658;BME280;20865;43.312;27.152;2023-06-19T05:18:50;100299.05;;;29.49;45.72
34658;BME280;20865;43.312;27.152;2023-06-19T05:21:18;100307.83;;;29.44;45.08
34658;BME280;20865;43.312;27.152;2023-06-19T05:23:45;100304.55;;;29.41;44.88
34658;BME280;20865;43.312;27.152;2023-06-19T05:26:22;100305.06;;;29.40;45.31
34658;BME280;20865;43.312;27.152;2023-06-19T05:28:50;100308.48;;;29.38;45.07
34658;BME280;20865;43.312;27.152;2023-06-19T05:31:18;100304.87;;;29.34;44.93
34658;BME280;20865;43.312;27.152;2023-06-19T05:33:45;100309.86;;;29.34;45.60
34658;BME280;20865;43.312;27.152;2023-06-19T05:36:13;100301.58;;;29.22;45.88
34658;BME280;20865;43.312;27.152;2023-06-19T05:38:40;100300.21;;;29.26;46.26
34658;BME280;20865;43.312;27.152;2023-06-19T05:41:08;100304.16;;;29.28;46.23
34658;BME280;20865;43.312;27.152;2023-06-19T05:43:36;100311.05;;;29.36;46.10
34658;BME280;20865;43.312;27.152;2023-06-19T05:46:03;100304.69;;;29.35;46.47
34658;BME280;20865;43.312;27.152;2023-06-19T05:48:31;100309.78;;;29.14;46.12
34658;BME280;20865;43.312;27.152;2023-06-19T05:50:58;100313.25;;;29.20;46.17
34658;BME280;20865;43.312;27.152;2023-06-19T05:53:26;100317.70;;;29.17;46.15
34658;BME280;20865;43.312;27.152;2023-06-19T05:55:54;100320.25;;;29.10;45.95
34658;BME280;20865;43.312;27.152;2023-06-19T05:58:21;100334.66;;;29.04;46.58
34658;BME280;20865;43.312;27.152;2023-06-19T06:00:51;100334.91;;;28.93;46.81
34658;BME280;20865;43.312;27.152;2023-06-19T06:03:20;100333.19;;;28.88;47.01
34658;BME280;20865;43.312;27.152;2023-06-19T06:05:48;100342.61;;;28.85;47.16
34658;BME280;20865;43.312;27.152;2023-06-19T06:08:16;100339.13;;;28.79;46.56
34658;BME280;20865;43.312;27.152;2023-06-19T06:10:43;100340.83;;;28.76;47.01
34658;BME280;20865;43.312;27.152;2023-06-19T06:13:11;100341.86;;;28.75;47.12
34658;BME280;20865;43.312;27.152;2023-06-19T06:15:39;100340.30;;;28.72;47.25
34658;BME280;20865;43.312;27.152;2023-06-19T06:18:06;100332.77;;;28.75;47.50
34658;BME280;20865;43.312;27.152;2023-06-19T06:20:34;100336.17;;;28.72;47.67
34658;BME280;20865;43.312;27.152;2023-06-19T06:23:01;100342.52;;;28.73;48.06
34658;BME280;20865;43.312;27.152;2023-06-19T06:25:29;100337.73;;;28.75;48.00
34658;BME280;20865;43.312;27.152;2023-06-19T06:27:57;100341.98;;;28.69;48.16
34658;BME280;20865;43.312;27.152;2023-06-19T06:30:24;100339.42;;;28.68;48.65
34658;BME280;20865;43.312;27.152;2023-06-19T06:32:54;100338.37;;;28.69;49.03
34658;BME280;20865;43.312;27.152;2023-06-19T06:35:21;100332.03;;;28.68;49.56
34658;BME280;20865;43.312;27.152;2023-06-19T06:37:49;100329.09;;;28.66;49.71
34658;BME280;20865;43.312;27.152;2023-06-19T06:40:17;100318.79;;;28.64;49.69
34658;BME280;20865;43.312;27.152;2023-06-19T06:42:45;100320.29;;;28.58;49.49
34658;BME280;20865;43.312;27.152;2023-06-19T06:45:13;100310.75;;;28.44;49.88
34658;BME280;20865;43.312;27.152;2023-06-19T06:47:41;100307.41;;;28.37;49.93
34658;BME280;20865;43.312;27.152;2023-06-19T06:50:09;100314.14;;;28.20;49.69
34658;BME280;20865;43.312;27.152;2023-06-19T06:52:37;100316.83;;;28.34;50.01
34658;BME280;20865;43.312;27.152;2023-06-19T06:55:05;100315.88;;;28.39;50.10
34658;BME280;20865;43.312;27.152;2023-06-19T06:57:33;100320.86;;;28.40;50.43
34658;BME280;20865;43.312;27.152;2023-06-19T07:00:03;100329.30;;;28.42;50.87
34658;BME280;20865;43.312;27.152;2023-06-19T07:02:30;100322.59;;;28.45;51.14
34658;BME280;20865;43.312;27.152;2023-06-19T07:04:58;100332.41;;;28.47;51.05
34658;BME280;20865;43.312;27.152;2023-06-19T07:07:26;100327.97;;;28.51;51.21
34658;BME280;20865;43.312;27.152;2023-06-19T07:09:53;100337.09;;;28.55;51.46
34658;BME280;20865;43.312;27.152;2023-06-19T07:12:22;100344.36;;;28.60;51.68
34658;BME280;20865;43.312;27.152;2023-06-19T07:14:54;100337.51;;;28.64;51.76
34658;BME280;20865;43.312;27.152;2023-06-19T07:17:22;100333.27;;;28.70;51.73
34658;BME280;20865;43.312;27.152;2023-06-19T07:19:50;100334.47;;;28.76;51.89
34658;BME280;20865;43.312;27.152;2023-06-19T07:22:17;100330.58;;;28.86;52.08
34658;BME280;20865;43.312;27.152;2023-06-19T07:24:45;100326.58;;;29.03;52.38
34658;BME280;20865;43.312;27.152;2023-06-19T07:27:13;100325.11;;;29.20;52.76
34658;BME280;20865;43.312;27.152;2023-06-19T07:29:40;100327.75;;;29.42;52.41
34658;BME280;20865;43.312;27.152;2023-06-19T07:32:08;100331.22;;;29.57;52.13
34658;BME280;20865;43.312;27.152;2023-06-19T07:34:37;100326.13;;;29.70;52.47
34658;BME280;20865;43.312;27.152;2023-06-19T07:37:05;100330.66;;;30.00;51.59
34658;BME280;20865;43.312;27.152;2023-06-19T07:39:34;100318.23;;;30.16;50.48
34658;BME280;20865;43.312;27.152;2023-06-19T07:42:06;100325.15;;;30.36;51.05
34658;BME280;20865;43.312;27.152;2023-06-19T07:44:39;100325.13;;;30.57;50.91
34658;BME280;20865;43.312;27.152;2023-06-19T07:47:10;100322.83;;;30.89;50.08
34658;BME280;20865;43.312;27.152;2023-06-19T07:49:41;100318.79;;;31.12;48.26
34658;BME280;20865;43.312;27.152;2023-06-19T07:52:15;100325.25;;;31.27;48.98
34658;BME280;20865;43.312;27.152;2023-06-19T07:54:57;100327.12;;;31.43;47.06
34658;BME280;20865;43.312;27.152;2023-06-19T07:57:26;100324.77;;;31.63;45.71
34658;BME280;20865;43.312;27.152;2023-06-19T07:59:54;100326.02;;;31.79;45.20
34658;BME280;20865;43.312;27.152;2023-06-19T08:02:22;100327.36;;;31.92;45.12
34658;BME280;20865;43.312;27.152;2023-06-19T08:04:49;100328.95;;;32.09;44.24
34658;BME280;20865;43.312;27.152;2023-06-19T08:07:17;100326.35;;;32.08;41.74
34658;BME280;20865;43.312;27.152;2023-06-19T08:09:45;100322.69;;;32.15;41.15
34658;BME280;20865;43.312;27.152;2023-06-19T08:12:12;100327.12;;;32.20;40.98
34658;BME280;20865;43.312;27.152;2023-06-19T08:14:40;100325.33;;;32.28;40.93
34658;BME280;20865;43.312;27.152;2023-06-19T08:17:07;100323.78;;;32.25;40.15
34658;BME280;20865;43.312;27.152;2023-06-19T08:19:35;100327.30;;;32.38;40.87
34658;BME280;20865;43.312;27.152;2023-06-19T08:22:05;100328.09;;;32.28;38.92
34658;BME280;20865;43.312;27.152;2023-06-19T08:24:33;100328.31;;;32.41;39.79
34658;BME280;20865;43.312;27.152;2023-06-19T08:27:03;100324.70;;;32.40;38.88
34658;BME280;20865;43.312;27.152;2023-06-19T08:29:30;100324.47;;;32.50;39.94
34658;BME280;20865;43.312;27.152;2023-06-19T08:31:58;100331.56;;;32.63;40.36
34658;BME280;20865;43.312;27.152;2023-06-19T08:34:26;100322.84;;;32.70;39.05
34658;BME280;20865;43.312;27.152;2023-06-19T08:36:53;100323.75;;;32.67;39.60
34658;BME280;20865;43.312;27.152;2023-06-19T08:39:21;100325.66;;;32.66;39.78
34658;BME280;20865;43.312;27.152;2023-06-19T08:41:48;100330.27;;;32.89;38.90
34658;BME280;20865;43.312;27.152;2023-06-19T08:44:16;100333.64;;;32.99;38.14
34658;BME280;20865;43.312;27.152;2023-06-19T08:46:43;100328.28;;;32.98;38.34
34658;BME280;20865;43.312;27.152;2023-06-19T08:49:11;100326.84;;;33.02;37.58
34658;BME280;20865;43.312;27.152;2023-06-19T08:51:41;100328.00;;;33.07;39.03
34658;BME280;20865;43.312;27.152;2023-06-19T08:54:08;100327.55;;;33.14;37.60
34658;BME280;20865;43.312;27.152;2023-06-19T08:56:36;100313.95;;;33.24;37.89
34658;BME280;20865;43.312;27.152;2023-06-19T08:59:14;100327.00;;;33.30;36.12
34658;BME280;20865;43.312;27.152;2023-06-19T09:01:52;100318.22;;;33.41;36.69
34658;BME280;20865;43.312;27.152;2023-06-19T09:04:25;100314.01;;;33.45;35.64
34658;BME280;20865;43.312;27.152;2023-06-19T09:07:01;100307.06;;;33.60;38.11
34658;BME280;20865;43.312;27.152;2023-06-19T09:09:29;100317.08;;;33.61;36.68
34658;BME280;20865;43.312;27.152;2023-06-19T09:14:36;100315.61;;;33.29;36.97
34658;BME280;20865;43.312;27.152;2023-06-19T09:17:05;100312.72;;;33.11;37.23
34658;BME280;20865;43.312;27.152;2023-06-19T09:19:36;100317.14;;;33.06;37.92
34658;BME280;20865;43.312;27.152;2023-06-19T09:22:05;100319.15;;;32.93;39.82
34658;BME280;20865;43.312;27.152;2023-06-19T09:24:38;100328.05;;;32.84;39.39
34658;BME280;20865;43.312;27.152;2023-06-19T09:27:11;100331.23;;;32.62;40.04
34658;BME280;20865;43.312;27.152;2023-06-19T09:29:41;100330.76;;;32.59;40.07
34658;BME280;20865;43.312;27.152;2023-06-19T09:32:23;100329.90;;;32.39;39.78
34658;BME280;20865;43.312;27.152;2023-06-19T09:34:54;100335.80;;;32.32;40.67
34658;BME280;20865;43.312;27.152;2023-06-19T09:37:26;100337.80;;;32.23;41.44
34658;BME280;20865;43.312;27.152;2023-06-19T09:39:59;100337.89;;;32.11;41.92
34658;BME280;20865;43.312;27.152;2023-06-19T09:42:32;100339.31;;;32.07;42.15
34658;BME280;20865;43.312;27.152;2023-06-19T09:45:06;100335.36;;;32.06;42.96
34658;BME280;20865;43.312;27.152;2023-06-19T09:47:42;100330.89;;;32.05;43.74
34658;BME280;20865;43.312;27.152;2023-06-19T09:50:15;100321.22;;;32.05;43.95
34658;BME280;20865;43.312;27.152;2023-06-19T09:52:44;100318.59;;;32.07;42.75
34658;BME280;20865;43.312;27.152;2023-06-19T09:55:12;100328.05;;;32.13;42.55
34658;BME280;20865;43.312;27.152;2023-06-19T09:57:41;100323.38;;;32.13;43.06
34658;BME280;20865;43.312;27.152;2023-06-19T10:00:10;100320.30;;;32.12;43.65
34658;BME280;20865;43.312;27.152;2023-06-19T10:02:44;100319.04;;;32.15;44.58
34658;BME280;20865;43.312;27.152;2023-06-19T10:05:12;100327.00;;;32.14;45.18
34658;BME280;20865;43.312;27.152;2023-06-19T10:07:42;100328.75;;;32.11;45.68
34658;BME280;20865;43.312;27.152;2023-06-19T10:10:22;100322.27;;;32.22;45.80
34658;BME280;20865;43.312;27.152;2023-06-19T10:12:42;100327.08;;;32.24;45.07
34658;BME280;20865;43.312;27.152;2023-06-19T10:15:20;100324.67;;;32.25;44.71
34658;BME280;20865;43.312;27.152;2023-06-19T10:17:53;100324.06;;;32.15;44.83
34658;BME280;20865;43.312;27.152;2023-06-19T10:22:52;100313.67;;;32.17;45.59
34658;BME280;20865;43.312;27.152;2023-06-19T10:25:21;100313.13;;;32.22;45.29
34658;BME280;20865;43.312;27.152;2023-06-19T10:27:49;100312.73;;;32.25;44.95
34658;BME280;20865;43.312;27.152;2023-06-19T10:30:21;100300.45;;;32.28;45.13
34658;BME280;20865;43.312;27.152;2023-06-19T10:32:49;100305.81;;;32.29;44.74
34658;BME280;20865;43.312;27.152;2023-06-19T10:35:17;100306.30;;;32.33;44.41
34658;BME280;20865;43.312;27.152;2023-06-19T10:37:47;100302.48;;;32.34;44.08
34658;BME280;20865;43.312;27.152;2023-06-19T10:40:15;100297.60;;;32.36;44.17
34658;BME280;20865;43.312;27.152;2023-06-19T10:42:44;100297.25;;;32.43;44.34
34658;BME280;20865;43.312;27.152;2023-06-19T10:45:12;100295.66;;;32.44;43.82
34658;BME280;20865;43.312;27.152;2023-06-19T10:47:42;100291.31;;;32.46;43.74
34658;BME280;20865;43.312;27.152;2023-06-19T10:50:14;100288.53;;;32.50;43.28
34658;BME280;20865;43.312;27.152;2023-06-19T10:52:43;100285.72;;;32.54;42.50
34658;BME280;20865;43.312;27.152;2023-06-19T10:55:13;100295.77;;;32.51;43.00
34658;BME280;20865;43.312;27.152;2023-06-19T10:57:45;100288.05;;;32.46;43.43
34658;BME280;20865;43.312;27.152;2023-06-19T11:00:27;100289.13;;;32.41;43.09
34658;BME280;20865;43.312;27.152;2023-06-19T11:02:56;100285.57;;;32.33;42.81
34658;BME280;20865;43.312;27.152;2023-06-19T11:05:25;100287.55;;;32.39;42.54
34658;BME280;20865;43.312;27.152;2023-06-19T11:07:56;100284.89;;;32.31;42.37
34658;BME280;20865;43.312;27.152;2023-06-19T11:10:26;100285.46;;;32.26;42.57
34658;BME280;20865;43.312;27.152;2023-06-19T11:12:56;100290.02;;;32.19;43.22
34658;BME280;20865;43.312;27.152;2023-06-19T11:15:34;100285.40;;;32.11;43.67
34658;BME280;20865;43.312;27.152;2023-06-19T11:18:02;100279.11;;;32.02;43.48
34658;BME280;20865;43.312;27.152;2023-06-19T11:20:30;100284.84;;;31.97;43.50
34658;BME280;20865;43.312;27.152;2023-06-19T11:22:59;100279.39;;;31.89;43.51
34658;BME280;20865;43.312;27.152;2023-06-19T11:25:38;100278.91;;;31.81;44.01
34658;BME280;20865;43.312;27.152;2023-06-19T11:28:11;100276.84;;;31.79;44.72
34658;BME280;20865;43.312;27.152;2023-06-19T11:30:40;100271.55;;;31.73;44.58
34658;BME280;20865;43.312;27.152;2023-06-19T11:33:20;100260.16;;;31.72;44.49
34658;BME280;20865;43.312;27.152;2023-06-19T11:35:51;100265.31;;;31.75;44.91
34658;BME280;20865;43.312;27.152;2023-06-19T11:38:24;100270.30;;;31.76;45.03
34658;BME280;20865;43.312;27.152;2023-06-19T11:40:54;100269.41;;;31.79;44.57
34658;BME280;20865;43.312;27.152;2023-06-19T11:43:26;100268.51;;;31.91;44.06
34658;BME280;20865;43.312;27.152;2023-06-19T11:46:00;100263.80;;;31.96;44.00
34658;BME280;20865;43.312;27.152;2023-06-19T11:48:24;100263.43;;;31.99;44.11
34658;BME280;20865;43.312;27.152;2023-06-19T11:50:53;100267.53;;;32.03;44.20
34658;BME280;20865;43.312;27.152;2023-06-19T11:53:22;100257.34;;;32.03;44.17
34658;BME280;20865;43.312;27.152;2023-06-19T11:55:50;100256.20;;;31.98;43.88
34658;BME280;20865;43.312;27.152;2023-06-19T11:58:21;100251.05;;;31.95;44.19
34658;BME280;20865;43.312;27.152;2023-06-19T12:00:49;100248.23;;;31.99;43.99
34658;BME280;20865;43.312;27.152;2023-06-19T12:03:16;100250.63;;;32.02;44.12
34658;BME280;20865;43.312;27.152;2023-06-19T12:05:44;100248.84;;;32.09;44.47
34658;BME280;20865;43.312;27.152;2023-06-19T12:08:11;100249.60;;;32.18;44.13
34658;BME280;20865;43.312;27.152;2023-06-19T12:10:39;100242.80;;;32.24;44.22
34658;BME280;20865;43.312;27.152;2023-06-19T12:13:07;100246.77;;;32.26;43.69
34658;BME280;20865;43.312;27.152;2023-06-19T12:15:35;100245.52;;;32.29;43.52
34658;BME280;20865;43.312;27.152;2023-06-19T12:18:02;100240.20;;;32.27;43.52
34658;BME280;20865;43.312;27.152;2023-06-19T12:20:30;100242.43;;;32.28;43.63
34658;BME280;20865;43.312;27.152;2023-06-19T12:22:58;100238.11;;;32.29;43.94
34658;BME280;20865;43.312;27.152;2023-06-19T12:25:25;100224.14;;;32.26;44.33
34658;BME280;20865;43.312;27.152;2023-06-19T12:27:53;100226.38;;;32.27;44.16
34658;BME280;20865;43.312;27.152;2023-06-19T12:30:20;100227.54;;;32.33;43.73
34658;BME280;20865;43.312;27.152;2023-06-19T12:32:48;100232.25;;;32.47;43.52
34658;BME280;20865;43.312;27.152;2023-06-19T12:35:16;100224.17;;;32.56;42.96
34658;BME280;20865;43.312;27.152;2023-06-19T12:37:44;100218.98;;;32.72;41.24
34658;BME280;20865;43.312;27.152;2023-06-19T12:40:12;100211.63;;;32.79;41.88
34658;BME280;20865;43.312;27.152;2023-06-19T12:42:40;100209.22;;;32.91;41.81
34658;BME280;20865;43.312;27.152;2023-06-19T12:45:08;100207.72;;;33.03;40.91
34658;BME280;20865;43.312;27.152;2023-06-19T12:47:36;100209.50;;;33.11;41.05
34658;BME280;20865;43.312;27.152;2023-06-19T12:50:04;100203.27;;;32.83;38.47
34658;BME280;20865;43.312;27.152;2023-06-19T12:52:32;100195.98;;;32.61;38.91